createdAt,value
2023-01-29T00:01:18.264Z,21.45
2023-01-29T00:03:44.632Z,22.50
2023-01-29T00:06:11.828Z,21.33
2023-01-29T00:08:38.897Z,21.02
2023-01-29T00:11:07.828Z,22.05
2023-01-29T00:13:34.853Z,22.17
2023-01-29T00:16:01.788Z,22.98
2023-01-29T00:18:29.093Z,21.95
2023-01-29T00:20:56.145Z,22.85
2023-01-29T00:23:23.442Z,23.85
2023-01-29T00:25:49.803Z,23.80
2023-01-29T00:28:16.158Z,21.77
2023-01-29T00:30:42.651Z,23.45
2023-01-29T00:33:08.966Z,22.58
2023-01-29T00:35:35.295Z,21.88
2023-01-29T00:38:01.663Z,21.77
2023-01-29T00:40:28.058Z,22.60
2023-01-29T00:43:13.071Z,22.15
2023-01-29T00:45:39.611Z,22.05
2023-01-29T00:48:06.309Z,21.83
2023-01-29T00:50:32.789Z,22.73
2023-01-29T00:52:59.108Z,21.67
2023-01-29T00:55:25.425Z,21.85
2023-01-29T00:57:51.786Z,22.20
2023-01-29T01:00:19.280Z,21.95
2023-01-29T01:03:04.039Z,21.65
2023-01-29T01:05:30.378Z,22.15
2023-01-29T01:07:57.909Z,22.85
2023-01-29T01:10:33.048Z,22.60
2023-01-29T01:13:05.093Z,22.02
2023-01-29T01:15:35.451Z,22.90
2023-01-29T01:18:02.888Z,21.95
2023-01-29T01:20:31.553Z,20.83
2023-01-29T01:22:58.025Z,22.77
2023-01-29T01:25:26.651Z,22.75
2023-01-29T01:27:54.378Z,20.50
2023-01-29T01:30:21.028Z,22.67
2023-01-29T01:32:47.410Z,20.67
2023-01-29T01:35:14.774Z,22.30
2023-01-29T01:37:41.798Z,22.10
2023-01-29T01:40:18.993Z,21.52
2023-01-29T01:42:52.540Z,23.02
2023-01-29T01:45:24.778Z,21.25
2023-01-29T01:47:56.263Z,21.77
2023-01-29T01:50:42.589Z,22.60
2023-01-29T01:53:14.490Z,21.60
2023-01-29T01:55:55.241Z,19.52
2023-01-29T01:58:26.556Z,22.52
2023-01-29T02:00:53.443Z,21.67
2023-01-29T02:03:41.385Z,22.02
2023-01-29T02:06:28.816Z,21.98
2023-01-29T02:09:21.995Z,20.20
2023-01-29T02:11:48.391Z,20.30
2023-01-29T02:14:14.746Z,21.58
2023-01-29T02:16:41.144Z,21.20
2023-01-29T02:19:34.687Z,21.60
2023-01-29T02:22:21.581Z,21.10
2023-01-29T02:25:00.118Z,22.35
2023-01-29T02:27:57.543Z,23.00
2023-01-29T02:30:33.552Z,21.73
2023-01-29T02:33:22.330Z,21.25
2023-01-29T02:35:58.610Z,22.58
2023-01-29T02:38:55.502Z,21.75
2023-01-29T02:41:27.828Z,20.98
2023-01-29T02:44:20.338Z,21.63
2023-01-29T02:46:56.399Z,22.23
2023-01-29T02:49:52.579Z,21.83
2023-01-29T02:52:25.248Z,21.27
2023-01-29T02:55:04.715Z,21.73
2023-01-29T02:57:36.890Z,21.17
2023-01-29T03:00:16.179Z,22.45
2023-01-29T03:03:08.768Z,22.17
2023-01-29T03:05:45.645Z,21.80
2023-01-29T03:08:18.324Z,20.55
2023-01-29T03:10:53.890Z,21.38
2023-01-29T03:13:35.507Z,22.25
2023-01-29T03:16:14.095Z,21.40
2023-01-29T03:18:46.236Z,22.05
2023-01-29T03:21:55.203Z,22.48
2023-01-29T03:24:50.534Z,21.67
2023-01-29T03:27:39.159Z,19.42
2023-01-29T03:30:27.852Z,21.00
2023-01-29T03:32:56.223Z,21.20
2023-01-29T03:35:36.435Z,21.65
2023-01-29T03:38:05.455Z,22.23
2023-01-29T03:40:43.671Z,21.55
2023-01-29T03:43:32.932Z,22.55
2023-01-29T03:46:19.927Z,23.10
2023-01-29T03:49:18.540Z,21.10
2023-01-29T03:52:11.024Z,20.80
2023-01-29T03:54:57.682Z,21.88
2023-01-29T03:57:39.157Z,21.45
2023-01-29T04:00:21.244Z,21.17
2023-01-29T04:02:55.496Z,21.60
2023-01-29T04:05:27.341Z,22.70
2023-01-29T04:08:02.443Z,21.73
2023-01-29T04:10:29.668Z,22.90
2023-01-29T04:13:04.285Z,22.38
2023-01-29T04:15:36.404Z,22.75
2023-01-29T04:18:02.795Z,23.65
2023-01-29T04:20:29.190Z,23.67
2023-01-29T04:22:55.884Z,24.02
2023-01-29T04:25:28.871Z,23.70
2023-01-29T04:28:08.627Z,24.27
2023-01-29T04:30:44.873Z,23.35
2023-01-29T04:33:11.208Z,23.67
2023-01-29T04:35:40.562Z,24.02
2023-01-29T04:38:34.205Z,25.20
2023-01-29T04:41:48.615Z,23.77
2023-01-29T04:44:26.881Z,23.85
2023-01-29T04:47:11.398Z,24.98
2023-01-29T04:49:47.063Z,25.23
2023-01-29T04:57:23.098Z,20.55
2023-01-29T05:00:00.527Z,23.93
2023-01-29T05:02:28.296Z,23.63
2023-01-29T05:04:58.440Z,25.85
2023-01-29T05:07:28.286Z,25.80
2023-01-29T05:09:55.931Z,25.92
2023-01-29T05:12:28.729Z,26.75
2023-01-29T05:15:00.232Z,25.65
2023-01-29T05:17:26.802Z,25.40
2023-01-29T05:19:54.909Z,27.58
2023-01-29T05:22:23.145Z,27.75
2023-01-29T05:24:50.560Z,25.70
2023-01-29T05:27:42.673Z,26.63
2023-01-29T05:30:10.326Z,23.88
2023-01-29T05:32:36.724Z,26.95
2023-01-29T05:35:03.214Z,26.45
2023-01-29T05:37:29.532Z,25.70
2023-01-29T05:39:55.879Z,24.13
2023-01-29T05:42:22.258Z,26.90
2023-01-29T05:44:48.596Z,26.75
2023-01-29T05:47:19.236Z,26.40
2023-01-29T05:52:20.541Z,26.85
2023-01-29T05:54:46.961Z,26.65
2023-01-29T05:57:14.732Z,26.42
2023-01-29T05:59:41.076Z,26.50
2023-01-29T06:02:07.432Z,26.02
2023-01-29T06:04:33.936Z,25.80
2023-01-29T06:07:03.259Z,25.08
2023-01-29T06:09:29.576Z,25.98
2023-01-29T06:11:55.965Z,26.38
2023-01-29T06:14:22.336Z,25.88
2023-01-29T06:16:48.682Z,26.00
2023-01-29T06:19:15.313Z,26.55
2023-01-29T06:21:41.639Z,24.95
2023-01-29T06:24:08.627Z,23.90
2023-01-29T06:26:35.117Z,23.90
2023-01-29T06:29:01.560Z,25.80
2023-01-29T06:31:38.188Z,23.58
2023-01-29T06:34:05.695Z,24.13
2023-01-29T06:36:32.235Z,24.25
2023-01-29T06:38:58.763Z,24.73
2023-01-29T06:41:25.553Z,24.88
2023-01-29T06:43:52.462Z,22.80
2023-01-29T06:46:18.843Z,24.30
2023-01-29T06:48:45.209Z,22.92
2023-01-29T06:51:11.849Z,23.27
2023-01-29T06:53:39.542Z,25.00
2023-01-29T06:56:06.760Z,23.52
2023-01-29T06:58:33.611Z,23.60
2023-01-29T07:01:34.591Z,23.48
2023-01-29T07:04:02.876Z,24.15
2023-01-29T07:06:29.478Z,24.20
2023-01-29T07:08:56.692Z,24.02
2023-01-29T07:11:23.172Z,23.10
2023-01-29T07:13:49.603Z,23.05
2023-01-29T07:16:16.045Z,23.20
2023-01-29T07:18:42.454Z,23.50
2023-01-29T07:21:08.814Z,24.00
2023-01-29T07:23:35.328Z,24.38
2023-01-29T07:26:06.304Z,24.00
2023-01-29T07:28:40.916Z,24.50
2023-01-29T07:31:08.000Z,24.40
2023-01-29T07:33:34.678Z,24.25
2023-01-29T07:36:01.161Z,22.75
2023-01-29T07:38:27.685Z,23.55
2023-01-29T07:40:54.333Z,24.75
2023-01-29T07:43:20.877Z,23.38
2023-01-29T07:45:47.403Z,25.08
2023-01-29T07:48:13.927Z,23.58
2023-01-29T07:50:41.395Z,24.73
2023-01-29T07:53:12.301Z,24.98
2023-01-29T07:55:38.731Z,24.98
2023-01-29T07:58:05.181Z,24.98
2023-01-29T08:00:31.760Z,23.58
2023-01-29T08:03:11.966Z,23.83
2023-01-29T08:05:38.343Z,25.35
2023-01-29T08:08:07.346Z,23.00
2023-01-29T08:10:38.344Z,22.48
2023-01-29T08:13:05.439Z,23.30
2023-01-29T08:15:33.054Z,23.48
2023-01-29T08:18:01.484Z,23.15
2023-01-29T08:20:28.458Z,23.08
2023-01-29T08:23:06.261Z,22.77
2023-01-29T08:25:32.877Z,22.95
2023-01-29T08:28:00.543Z,22.95
2023-01-29T08:30:30.483Z,22.95
2023-01-29T08:32:56.835Z,21.63
2023-01-29T08:35:23.990Z,23.25
2023-01-29T08:37:59.366Z,21.85
2023-01-29T08:40:27.332Z,21.42
2023-01-29T08:43:00.367Z,22.30
2023-01-29T08:45:27.951Z,22.20
2023-01-29T08:47:54.278Z,21.67
2023-01-29T08:50:20.843Z,22.38
2023-01-29T08:52:47.216Z,21.13
2023-01-29T08:55:14.083Z,21.50
2023-01-29T08:57:40.652Z,20.70
2023-01-29T09:00:10.282Z,21.90
2023-01-29T09:02:37.510Z,20.40
2023-01-29T09:05:04.076Z,21.48
2023-01-29T09:07:30.377Z,21.23
2023-01-29T09:09:56.735Z,21.83
2023-01-29T09:12:23.115Z,20.98
2023-01-29T09:14:49.412Z,19.67
2023-01-29T09:17:15.767Z,20.73
2023-01-29T09:19:42.112Z,22.17
2023-01-29T09:22:10.353Z,21.42
2023-01-29T09:24:37.326Z,19.40
2023-01-29T09:27:05.044Z,20.70
2023-01-29T09:29:32.299Z,20.20
2023-01-29T09:31:59.977Z,20.55
2023-01-29T09:34:26.338Z,21.52
2023-01-29T09:36:52.790Z,20.55
2023-01-29T09:39:19.134Z,20.50
2023-01-29T09:42:07.711Z,21.23
2023-01-29T09:45:02.516Z,19.83
2023-01-29T09:47:31.863Z,18.80
2023-01-29T09:50:05.698Z,21.05
2023-01-29T09:52:38.743Z,19.55
2023-01-29T09:55:26.157Z,20.10
2023-01-29T09:58:01.067Z,18.98
2023-01-29T10:00:30.287Z,19.95
2023-01-29T10:03:15.517Z,18.88
2023-01-29T10:06:03.530Z,19.87
2023-01-29T10:08:58.814Z,18.77
2023-01-29T10:12:11.013Z,19.77
2023-01-29T10:14:49.722Z,18.95
2023-01-29T10:17:36.304Z,19.48
2023-01-29T10:20:36.649Z,20.20
2023-01-29T10:23:18.135Z,19.30
2023-01-29T10:25:47.200Z,20.50
2023-01-29T10:28:29.339Z,20.38
2023-01-29T10:31:01.923Z,19.52
2023-01-29T10:34:01.975Z,20.27
2023-01-29T10:36:36.842Z,19.23
2023-01-29T10:39:03.256Z,19.92
2023-01-29T10:41:49.592Z,20.98
2023-01-29T10:44:40.185Z,20.75
2023-01-29T10:47:20.011Z,18.77
2023-01-29T10:50:01.798Z,20.00
2023-01-29T10:52:50.928Z,21.45
2023-01-29T10:55:36.356Z,20.08
2023-01-29T10:58:15.256Z,19.98
2023-01-29T11:00:42.189Z,19.38
2023-01-29T11:03:33.455Z,20.80
2023-01-29T11:06:23.540Z,20.95
2023-01-29T11:08:56.101Z,20.08
2023-01-29T11:11:32.980Z,20.00
2023-01-29T11:14:07.170Z,21.08
2023-01-29T11:16:42.326Z,20.35
2023-01-29T11:19:08.870Z,21.67
2023-01-29T11:21:58.970Z,21.05
2023-01-29T11:24:26.597Z,21.17
2023-01-29T11:26:57.076Z,21.67
2023-01-29T11:29:38.181Z,21.42
2023-01-29T11:32:08.082Z,20.92
2023-01-29T11:34:34.493Z,21.15
2023-01-29T11:37:15.026Z,21.00
2023-01-29T11:39:47.096Z,21.77
2023-01-29T11:42:22.564Z,20.88
2023-01-29T11:44:49.637Z,21.73
2023-01-29T11:47:15.954Z,21.25
2023-01-29T11:50:02.193Z,21.23
2023-01-29T11:55:16.446Z,19.63
2023-01-29T11:57:48.486Z,21.42
2023-01-29T12:00:23.540Z,21.00
2023-01-29T12:02:54.255Z,20.95
2023-01-29T12:05:26.287Z,19.67
2023-01-29T12:08:01.278Z,21.60
2023-01-29T12:10:36.818Z,22.77
2023-01-29T12:13:20.098Z,21.20
2023-01-29T12:15:48.096Z,20.10
2023-01-29T12:18:35.456Z,21.75
2023-01-29T12:21:04.775Z,22.63
2023-01-29T12:24:16.247Z,21.98
2023-01-29T12:26:51.077Z,20.45
2023-01-29T12:29:39.431Z,21.67
2023-01-29T12:32:14.975Z,20.98
2023-01-29T12:34:53.129Z,22.25
2023-01-29T12:37:42.200Z,21.50
2023-01-29T12:40:13.844Z,21.00
2023-01-29T12:42:44.483Z,21.17
2023-01-29T12:45:18.629Z,21.73
2023-01-29T12:47:52.229Z,21.52
2023-01-29T12:50:27.502Z,20.83
2023-01-29T12:52:58.351Z,21.13
2023-01-29T12:55:29.384Z,22.15
2023-01-29T12:58:12.800Z,21.60
2023-01-29T13:00:44.800Z,20.25
2023-01-29T13:03:17.258Z,20.42
2023-01-29T13:05:46.296Z,21.45
2023-01-29T13:08:29.113Z,19.58
2023-01-29T13:10:58.460Z,21.25
2023-01-29T13:13:36.789Z,20.83
2023-01-29T13:16:07.349Z,21.60
2023-01-29T13:18:40.800Z,20.98
2023-01-29T13:21:14.180Z,20.65
2023-01-29T13:23:47.241Z,20.40
2023-01-29T13:26:18.783Z,21.08
2023-01-29T13:28:46.115Z,21.30
2023-01-29T13:31:40.868Z,21.23
2023-01-29T13:34:24.955Z,20.58
2023-01-29T13:36:57.324Z,20.92
2023-01-29T13:39:28.843Z,20.77
2023-01-29T13:41:56.923Z,21.55
2023-01-29T13:44:37.749Z,20.92
2023-01-29T13:47:20.208Z,21.23
2023-01-29T13:50:07.842Z,21.35
2023-01-29T13:52:56.450Z,21.60
2023-01-29T13:55:31.304Z,21.05
2023-01-29T13:58:21.221Z,20.83
2023-01-29T14:00:49.103Z,20.35
2023-01-29T14:03:15.425Z,21.40
2023-01-29T14:06:00.678Z,20.75
2023-01-29T14:08:37.717Z,20.50
2023-01-29T14:11:13.032Z,21.20
2023-01-29T14:13:39.747Z,21.30
2023-01-29T14:16:28.531Z,21.95
2023-01-29T14:19:02.006Z,21.83
2023-01-29T14:21:32.478Z,23.27
2023-01-29T14:24:09.636Z,21.65
2023-01-29T14:26:38.757Z,22.85
2023-01-29T14:29:33.891Z,22.73
2023-01-29T14:32:13.169Z,21.55
2023-01-29T14:34:47.781Z,22.60
2023-01-29T14:37:18.676Z,24.02
2023-01-29T14:40:11.539Z,24.23
2023-01-29T14:42:44.129Z,23.20
2023-01-29T14:45:22.529Z,22.98
2023-01-29T14:47:48.829Z,21.95
2023-01-29T14:50:33.501Z,24.00
2023-01-29T14:53:09.093Z,23.10
2023-01-29T14:55:41.793Z,22.55
2023-01-29T14:58:18.342Z,23.98
2023-01-29T15:00:50.355Z,23.02
2023-01-29T15:03:28.256Z,22.80
2023-01-29T15:05:55.815Z,23.77
2023-01-29T15:08:38.139Z,24.83
2023-01-29T15:11:36.034Z,23.65
2023-01-29T15:14:14.428Z,24.38
2023-01-29T15:17:07.890Z,23.20
2023-01-29T15:19:34.202Z,25.15
2023-01-29T15:22:13.140Z,23.98
2023-01-29T15:24:41.786Z,25.52
2023-01-29T15:27:14.397Z,24.95
2023-01-29T15:29:43.068Z,23.75
2023-01-29T15:32:16.799Z,24.92
2023-01-29T15:34:44.177Z,25.42
2023-01-29T15:37:30.856Z,26.52
2023-01-29T15:39:57.489Z,26.20
2023-01-29T15:42:25.783Z,26.10
2023-01-29T15:44:56.127Z,26.10
2023-01-29T15:47:31.076Z,25.48
2023-01-29T15:49:57.906Z,26.77
2023-01-29T15:52:28.694Z,26.27
2023-01-29T15:54:57.823Z,26.67
2023-01-29T15:57:37.246Z,26.73
2023-01-29T16:00:05.564Z,24.75
2023-01-29T16:02:34.998Z,24.23
2023-01-29T16:05:02.470Z,25.38
2023-01-29T16:07:30.063Z,27.42
2023-01-29T16:09:57.419Z,26.00
2023-01-29T16:12:24.334Z,25.77
2023-01-29T16:14:51.699Z,25.60
2023-01-29T16:17:35.454Z,26.63
2023-01-29T16:20:07.515Z,26.35
2023-01-29T16:22:36.973Z,26.33
2023-01-29T16:25:14.503Z,25.73
2023-01-29T16:27:43.931Z,26.85
2023-01-29T16:30:16.209Z,25.75
2023-01-29T16:32:42.899Z,26.67
2023-01-29T16:35:15.707Z,28.60
2023-01-29T16:37:46.633Z,26.75
2023-01-29T16:40:26.929Z,27.02
2023-01-29T16:43:41.910Z,26.45
2023-01-29T16:46:20.700Z,27.35
2023-01-29T16:48:47.799Z,28.77
2023-01-29T16:51:22.395Z,27.45
2023-01-29T16:54:00.984Z,27.45
2023-01-29T16:56:30.914Z,27.63
2023-01-29T16:58:58.212Z,28.52
2023-01-29T17:01:28.407Z,27.50
2023-01-29T17:04:07.547Z,27.27
2023-01-29T17:06:34.862Z,27.48
2023-01-29T17:09:02.479Z,28.05
2023-01-29T17:11:38.423Z,27.02
2023-01-29T17:14:07.294Z,28.67
2023-01-29T17:16:50.298Z,27.95
2023-01-29T17:19:20.671Z,26.73
2023-01-29T17:21:47.706Z,26.20
2023-01-29T17:24:14.207Z,29.27
2023-01-29T17:26:41.126Z,26.85
2023-01-29T17:29:13.857Z,29.42
2023-01-29T17:31:40.643Z,27.77
2023-01-29T17:34:14.929Z,29.75
2023-01-29T17:36:45.182Z,26.83
2023-01-29T17:39:17.090Z,27.90
2023-01-29T17:41:47.520Z,26.73
2023-01-29T17:44:13.980Z,27.73
2023-01-29T17:46:40.315Z,28.95
2023-01-29T17:49:26.558Z,27.80
2023-01-29T17:54:20.208Z,25.13
2023-01-29T17:56:47.259Z,25.63
2023-01-29T17:59:16.023Z,28.25
2023-01-29T18:01:42.559Z,28.50
2023-01-29T18:04:09.432Z,28.88
2023-01-29T18:06:36.561Z,28.88
2023-01-29T18:09:03.608Z,27.88
2023-01-29T18:11:30.628Z,28.33
2023-01-29T18:13:57.400Z,29.38
2023-01-29T18:16:24.767Z,28.50
2023-01-29T18:18:52.385Z,30.13
2023-01-29T18:21:18.924Z,34.35
2023-01-29T18:23:45.387Z,32.40
2023-01-29T18:26:12.804Z,30.58
2023-01-29T18:28:39.188Z,34.22
2023-01-29T18:31:05.933Z,31.15
2023-01-29T18:33:34.287Z,30.25
2023-01-29T18:36:00.776Z,31.17
2023-01-29T18:38:27.474Z,31.02
2023-01-29T18:40:53.923Z,29.75
2023-01-29T18:43:20.268Z,33.83
2023-01-29T18:45:46.678Z,33.03
2023-01-29T18:48:14.127Z,31.38
2023-01-29T18:50:40.460Z,29.52
2023-01-29T18:53:07.596Z,31.98
2023-01-29T18:55:34.090Z,28.73
2023-01-29T18:58:27.495Z,28.30
2023-01-29T19:00:46.904Z,28.95
2023-01-29T19:03:13.392Z,27.20
2023-01-29T19:05:39.839Z,28.88
2023-01-29T19:08:06.388Z,27.90
2023-01-29T19:10:33.134Z,27.55
2023-01-29T19:12:59.547Z,27.70
2023-01-29T19:15:26.094Z,27.23
2023-01-29T19:17:52.777Z,26.33
2023-01-29T19:20:19.291Z,24.70
2023-01-29T19:22:45.792Z,26.10
2023-01-29T19:25:12.730Z,26.15
2023-01-29T19:27:39.192Z,25.45
2023-01-29T19:30:06.058Z,25.00
2023-01-29T19:32:32.905Z,25.65
2023-01-29T19:34:59.306Z,25.75
2023-01-29T19:37:25.811Z,25.42
2023-01-29T19:39:53.511Z,25.60
2023-01-29T19:42:20.799Z,25.50
2023-01-29T19:44:47.384Z,25.20
2023-01-29T19:47:13.821Z,23.90
2023-01-29T19:49:40.493Z,25.50
2023-01-29T19:52:14.738Z,25.75
2023-01-29T19:54:45.998Z,26.55
2023-01-29T19:57:12.406Z,25.33
2023-01-29T19:59:38.837Z,25.67
2023-01-29T20:02:05.546Z,27.38
2023-01-29T20:04:32.330Z,25.23
2023-01-29T20:06:59.555Z,25.40
2023-01-29T20:09:25.892Z,26.13
2023-01-29T20:11:52.222Z,26.02
2023-01-29T20:14:18.584Z,26.13
2023-01-29T20:16:44.973Z,27.05
2023-01-29T20:19:13.315Z,27.10
2023-01-29T20:21:41.799Z,25.88
2023-01-29T20:24:12.258Z,25.27
2023-01-29T20:26:38.932Z,25.63
2023-01-29T20:29:05.640Z,25.00
2023-01-29T20:31:32.014Z,26.33
2023-01-29T20:33:58.418Z,25.73
2023-01-29T20:36:24.735Z,25.60
2023-01-29T20:38:51.183Z,26.05
2023-01-29T20:41:19.272Z,25.17
2023-01-29T20:43:46.908Z,24.70
2023-01-29T20:46:13.959Z,26.42
2023-01-29T20:48:41.866Z,25.35
2023-01-29T20:51:12.989Z,25.75
2023-01-29T20:53:40.966Z,25.05
2023-01-29T20:56:08.401Z,23.65
2023-01-29T20:58:36.008Z,25.02
2023-01-29T21:01:17.268Z,25.35
2023-01-29T21:03:44.555Z,24.73
2023-01-29T21:06:11.330Z,24.95
2023-01-29T21:08:38.216Z,24.30
2023-01-29T21:11:06.265Z,25.02
2023-01-29T21:13:33.065Z,24.98
2023-01-29T21:15:59.830Z,24.02
2023-01-29T21:18:26.376Z,24.08
2023-01-29T21:20:53.576Z,24.55
2023-01-29T21:23:20.402Z,24.27
2023-01-29T21:25:46.759Z,23.02
2023-01-29T21:28:13.067Z,23.92
2023-01-29T21:30:39.583Z,25.10
2023-01-29T21:33:06.076Z,23.60
2023-01-29T21:35:32.480Z,24.08
2023-01-29T21:37:58.895Z,24.27
2023-01-29T21:40:29.731Z,23.35
2023-01-29T21:43:16.044Z,23.98
2023-01-29T21:45:43.036Z,23.75
2023-01-29T21:48:11.248Z,22.98
2023-01-29T21:50:38.821Z,22.50
2023-01-29T21:53:05.142Z,22.83
2023-01-29T21:55:32.445Z,22.55
2023-01-29T21:58:00.419Z,23.60
2023-01-29T22:00:27.223Z,23.58
2023-01-29T22:02:53.673Z,23.33
2023-01-29T22:05:20.534Z,22.73
2023-01-29T22:07:48.330Z,22.27
2023-01-29T22:10:16.841Z,22.73
2023-01-29T22:12:44.589Z,22.38
2023-01-29T22:15:13.011Z,23.33
2023-01-29T22:17:41.355Z,22.40
2023-01-29T22:20:12.418Z,22.85
2023-01-29T22:22:39.120Z,22.30
2023-01-29T22:25:06.274Z,23.02
2023-01-29T22:27:33.628Z,22.48
2023-01-29T22:30:00.096Z,22.45
2023-01-29T22:32:26.722Z,24.00
2023-01-29T22:34:53.143Z,22.73
2023-01-29T22:37:19.588Z,21.75
2023-01-29T22:39:45.906Z,23.02
2023-01-29T22:42:12.352Z,22.83
2023-01-29T22:44:38.769Z,22.30
2023-01-29T22:47:05.199Z,22.30
2023-01-29T22:49:32.167Z,22.83
2023-01-29T22:52:16.290Z,23.25
2023-01-29T22:54:43.608Z,22.55
2023-01-29T22:57:12.377Z,22.85
2023-01-29T22:59:39.098Z,22.73
2023-01-29T23:02:06.648Z,22.77
2023-01-29T23:04:33.181Z,22.27
2023-01-29T23:06:59.575Z,22.42
2023-01-29T23:09:26.062Z,22.85
2023-01-29T23:11:52.415Z,23.30
2023-01-29T23:14:18.884Z,22.08
2023-01-29T23:16:45.366Z,22.13
2023-01-29T23:19:12.217Z,23.55
2023-01-29T23:21:39.449Z,23.13
2023-01-29T23:24:07.139Z,21.98
2023-01-29T23:26:51.887Z,21.20
2023-01-29T23:29:18.324Z,22.77
2023-01-29T23:31:44.791Z,23.48
2023-01-29T23:34:11.358Z,22.52
2023-01-29T23:36:37.851Z,22.10
2023-01-29T23:39:04.513Z,21.98
2023-01-29T23:41:30.824Z,22.83
2023-01-29T23:43:57.376Z,22.15
2023-01-29T23:46:23.784Z,21.27
2023-01-29T23:48:50.125Z,22.55
2023-01-29T23:51:16.839Z,22.40
2023-01-29T23:53:43.240Z,21.77
2023-01-29T23:56:10.388Z,22.38
2023-01-29T23:58:36.776Z,22.15
